createdAt,value
2023-04-18T00:00:12.468Z,8.72
2023-04-18T00:04:26.829Z,8.69
2023-04-18T00:08:39.260Z,8.73
2023-04-18T00:12:51.852Z,8.62
2023-04-18T00:17:11.020Z,8.78
2023-04-18T00:21:25.897Z,8.77
2023-04-18T00:25:38.423Z,8.67
2023-04-18T00:29:50.952Z,8.57
2023-04-18T00:34:03.690Z,8.64
2023-04-18T00:38:16.104Z,8.84
2023-04-18T00:42:29.863Z,8.73
2023-04-18T00:46:42.243Z,8.48
2023-04-18T00:50:55.184Z,8.59
2023-04-18T00:55:08.910Z,8.56
2023-04-18T00:59:22.529Z,8.28
2023-04-18T01:03:35.495Z,8.24
2023-04-18T01:07:48.336Z,8.16
2023-04-18T01:12:04.610Z,8.02
2023-04-18T01:16:18.594Z,7.97
2023-04-18T01:20:31.725Z,8.27
2023-04-18T01:24:44.124Z,8.51
2023-04-18T01:28:56.965Z,8.34
2023-04-18T01:33:09.755Z,8.42
2023-04-18T01:37:22.505Z,8.26
2023-04-18T01:41:34.959Z,8.42
2023-04-18T01:45:47.533Z,8.50
2023-04-18T01:49:59.946Z,8.44
2023-04-18T01:54:14.305Z,8.39
2023-04-18T01:58:27.350Z,8.23
2023-04-18T02:02:39.768Z,8.48
2023-04-18T02:06:52.581Z,8.41
2023-04-18T02:11:06.203Z,8.26
2023-04-18T02:15:18.806Z,8.26
2023-04-18T02:19:31.352Z,8.30
2023-04-18T02:23:43.771Z,8.25
2023-04-18T02:27:57.446Z,8.33
2023-04-18T02:32:09.953Z,8.36
2023-04-18T02:36:22.398Z,8.32
2023-04-18T02:40:34.875Z,8.28
2023-04-18T02:44:47.207Z,8.50
2023-04-18T02:48:59.811Z,8.46
2023-04-18T02:53:12.248Z,8.44
2023-04-18T02:57:37.101Z,8.41
2023-04-18T03:02:10.683Z,8.18
2023-04-18T03:06:29.803Z,8.35
2023-04-18T03:10:43.105Z,8.16
2023-04-18T03:14:55.836Z,8.03
2023-04-18T03:19:08.789Z,8.07
2023-04-18T03:23:21.257Z,8.22
2023-04-18T03:27:34.223Z,8.04
2023-04-18T03:31:47.036Z,7.95
2023-04-18T03:35:59.615Z,7.90
2023-04-18T03:40:12.748Z,7.73
2023-04-18T03:44:26.881Z,7.72
2023-04-18T03:48:39.361Z,7.72
2023-04-18T03:52:56.057Z,8.00
2023-04-18T03:57:08.678Z,7.95
2023-04-18T04:01:22.952Z,8.03
2023-04-18T04:05:37.525Z,8.01
2023-04-18T04:09:50.386Z,8.09
2023-04-18T04:14:02.777Z,8.04
2023-04-18T04:18:30.094Z,8.34
2023-04-18T04:22:44.618Z,8.30
2023-04-18T04:26:57.458Z,8.48
2023-04-18T04:31:11.678Z,8.53
2023-04-18T04:35:25.451Z,8.69
2023-04-18T04:39:37.865Z,8.70
2023-04-18T04:44:05.400Z,8.83
2023-04-18T04:48:20.644Z,8.95
2023-04-18T04:52:33.141Z,9.08
2023-04-18T04:56:46.357Z,9.24
2023-04-18T05:00:58.826Z,9.35
2023-04-18T05:05:11.752Z,9.51
2023-04-18T05:09:24.155Z,9.65
2023-04-18T05:13:36.538Z,9.70
2023-04-18T05:17:48.877Z,9.75
2023-04-18T05:22:01.427Z,9.85
2023-04-18T05:26:13.901Z,10.03
2023-04-18T05:30:26.499Z,10.31
2023-04-18T05:34:39.708Z,10.58
2023-04-18T05:38:52.178Z,11.01
2023-04-18T05:43:04.569Z,11.25
2023-04-18T05:47:17.810Z,11.14
2023-04-18T05:51:31.580Z,10.99
2023-04-18T05:55:46.599Z,11.43
2023-04-18T05:59:59.115Z,11.66
2023-04-18T06:04:11.908Z,11.60
2023-04-18T06:08:24.796Z,11.08
2023-04-18T06:12:37.634Z,11.20
2023-04-18T06:16:50.459Z,11.40
2023-04-18T06:21:02.880Z,11.66
2023-04-18T06:25:16.577Z,11.36
2023-04-18T06:29:30.706Z,12.13
2023-04-18T06:33:43.171Z,12.27
2023-04-18T06:37:55.635Z,12.69
2023-04-18T06:42:08.117Z,13.35
2023-04-18T06:46:28.751Z,13.90
2023-04-18T06:50:41.426Z,14.38
2023-04-18T06:54:53.682Z,14.30
2023-04-18T06:59:06.288Z,13.81
2023-04-18T07:03:19.096Z,14.40
2023-04-18T07:07:32.097Z,14.80
2023-04-18T07:11:44.650Z,15.21
2023-04-18T07:15:57.270Z,15.29
2023-04-18T07:20:12.981Z,15.09
2023-04-18T07:24:26.861Z,15.55
2023-04-18T07:28:39.426Z,15.23
2023-04-18T07:32:51.991Z,15.41
2023-04-18T07:37:04.788Z,15.40
2023-04-18T07:41:17.191Z,15.62
2023-04-18T07:45:29.872Z,16.43
2023-04-18T07:49:42.382Z,16.06
2023-04-18T07:53:54.917Z,16.10
2023-04-18T07:58:07.514Z,16.69
2023-04-18T08:02:21.937Z,16.13
2023-04-18T08:06:35.186Z,16.82
2023-04-18T08:10:48.054Z,17.56
2023-04-18T08:15:00.669Z,17.16
2023-04-18T08:19:13.381Z,17.99
2023-04-18T08:23:26.144Z,18.04
2023-04-18T08:27:38.709Z,18.87
2023-04-18T08:31:51.301Z,18.23
2023-04-18T08:36:03.924Z,17.91
2023-04-18T08:40:17.306Z,18.16
2023-04-18T08:44:33.848Z,18.06
2023-04-18T08:48:50.073Z,18.82
2023-04-18T08:53:02.718Z,19.15
2023-04-18T08:57:30.375Z,18.11
2023-04-18T09:02:01.970Z,17.89
2023-04-18T09:06:21.429Z,18.48
2023-04-18T09:10:36.849Z,17.36
2023-04-18T09:14:51.867Z,17.98
2023-04-18T09:19:13.427Z,19.26
2023-04-18T09:23:26.408Z,17.61
2023-04-18T09:27:38.905Z,17.32
2023-04-18T09:31:56.367Z,17.89
2023-04-18T09:36:22.695Z,19.01
2023-04-18T09:40:36.019Z,18.33
2023-04-18T09:45:08.743Z,19.32
2023-04-18T09:49:21.286Z,19.74
2023-04-18T09:53:38.551Z,20.95
2023-04-18T09:57:53.142Z,20.41
2023-04-18T10:02:10.371Z,18.85
2023-04-18T10:06:27.632Z,18.08
2023-04-18T10:10:41.113Z,17.78
2023-04-18T10:14:54.935Z,18.37
2023-04-18T10:19:27.233Z,19.34
2023-04-18T10:23:40.843Z,20.71
2023-04-18T10:27:57.980Z,20.67
2023-04-18T10:32:10.327Z,19.29
2023-04-18T10:36:24.946Z,18.95
2023-04-18T10:40:37.309Z,19.34
2023-04-18T10:45:26.156Z,20.36
2023-04-18T10:49:38.650Z,20.07
2023-04-18T10:53:54.721Z,20.82
2023-04-18T10:58:07.269Z,18.23
2023-04-18T11:02:31.018Z,17.63
2023-04-18T11:06:58.979Z,17.18
2023-04-18T11:11:11.830Z,17.24
2023-04-18T11:15:25.916Z,17.22
2023-04-18T11:19:38.372Z,16.80
2023-04-18T11:23:50.891Z,17.35
2023-04-18T11:28:05.012Z,18.12
2023-04-18T11:32:17.499Z,19.94
2023-04-18T11:36:30.151Z,20.64
2023-04-18T11:40:50.636Z,19.83
2023-04-18T11:45:04.134Z,19.46
2023-04-18T11:49:33.223Z,19.40
2023-04-18T11:53:45.825Z,20.13
2023-04-18T11:58:00.345Z,20.49
2023-04-18T12:02:16.559Z,18.35
2023-04-18T12:06:46.841Z,18.06
2023-04-18T12:10:59.225Z,17.79
2023-04-18T12:15:15.710Z,17.72
2023-04-18T12:19:30.306Z,17.54
2023-04-18T12:23:43.196Z,17.08
2023-04-18T12:27:59.764Z,17.01
2023-04-18T12:32:13.386Z,16.61
2023-04-18T12:36:26.817Z,16.40
2023-04-18T12:40:41.284Z,16.28
2023-04-18T12:44:53.753Z,16.13
2023-04-18T12:49:06.237Z,15.96
2023-04-18T12:53:18.655Z,15.75
2023-04-18T12:57:31.990Z,15.34
2023-04-18T13:01:44.599Z,14.28
2023-04-18T13:05:57.170Z,13.73
2023-04-18T13:10:13.651Z,13.62
2023-04-18T13:14:26.842Z,13.39
2023-04-18T13:18:39.244Z,13.79
2023-04-18T13:22:51.620Z,13.81
2023-04-18T13:27:10.582Z,14.24
2023-04-18T13:31:23.108Z,14.21
2023-04-18T13:35:36.625Z,14.60
2023-04-18T13:39:49.233Z,15.05
2023-04-18T13:44:01.616Z,15.46
2023-04-18T13:48:16.161Z,15.61
2023-04-18T13:52:29.058Z,16.05
2023-04-18T13:56:42.223Z,16.38
2023-04-18T14:00:54.671Z,16.71
2023-04-18T14:05:07.760Z,18.22
2023-04-18T14:09:20.284Z,18.59
2023-04-18T14:13:32.997Z,18.51
2023-04-18T14:17:45.913Z,17.37
2023-04-18T14:21:58.496Z,17.79
2023-04-18T14:26:11.470Z,17.93
2023-04-18T14:30:24.057Z,17.47
2023-04-18T14:34:38.724Z,18.04
2023-04-18T14:38:51.340Z,18.73
2023-04-18T14:43:03.928Z,18.61
2023-04-18T14:47:16.713Z,18.35
2023-04-18T14:51:29.096Z,18.30
2023-04-18T14:55:41.740Z,18.61
2023-04-18T14:59:55.129Z,19.00
2023-04-18T15:04:08.079Z,17.87
2023-04-18T15:08:20.966Z,17.17
2023-04-18T15:12:33.358Z,17.50
2023-04-18T15:16:45.819Z,17.64
2023-04-18T15:21:00.340Z,17.38
2023-04-18T15:25:16.583Z,17.01
2023-04-18T15:29:30.386Z,16.22
2023-04-18T15:33:44.090Z,15.93
2023-04-18T15:37:57.756Z,15.75
2023-04-18T15:42:10.253Z,15.61
2023-04-18T15:46:25.950Z,15.49
2023-04-18T15:50:38.437Z,15.52
2023-04-18T15:54:53.490Z,15.21
2023-04-18T15:59:07.130Z,15.14
2023-04-18T16:03:19.576Z,15.10
2023-04-18T16:07:32.209Z,15.14
2023-04-18T16:11:44.986Z,15.04
2023-04-18T16:15:57.569Z,15.12
2023-04-18T16:20:10.474Z,15.17
2023-04-18T16:24:22.809Z,15.17
2023-04-18T16:28:37.986Z,15.13
2023-04-18T16:32:50.629Z,15.13
2023-04-18T16:37:03.020Z,15.16
2023-04-18T16:41:15.374Z,15.10
2023-04-18T16:45:27.815Z,14.88
2023-04-18T16:49:41.565Z,14.84
2023-04-18T16:53:54.055Z,14.75
2023-04-18T16:58:06.565Z,14.68
2023-04-18T17:02:19.095Z,14.70
2023-04-18T17:06:32.393Z,14.67
2023-04-18T17:10:44.737Z,14.62
2023-04-18T17:14:57.233Z,14.60
2023-04-18T17:19:11.763Z,14.63
2023-04-18T17:23:24.290Z,14.65
2023-04-18T17:27:36.862Z,14.59
2023-04-18T17:31:49.237Z,14.34
2023-04-18T17:36:02.181Z,14.20
2023-04-18T17:40:15.884Z,14.14
2023-04-18T17:44:28.223Z,14.12
2023-04-18T17:48:41.582Z,14.07
2023-04-18T17:52:54.500Z,14.05
2023-04-18T17:57:06.948Z,13.93
2023-04-18T18:01:21.413Z,13.84
2023-04-18T18:05:33.871Z,13.82
2023-04-18T18:09:46.312Z,13.74
2023-04-18T18:13:59.470Z,13.71
2023-04-18T18:18:11.840Z,13.67
2023-04-18T18:22:26.281Z,13.66
2023-04-18T18:26:38.730Z,13.62
2023-04-18T18:30:51.408Z,13.65
2023-04-18T18:35:06.026Z,13.65
2023-04-18T18:39:18.484Z,13.68
2023-04-18T18:43:31.301Z,13.68
2023-04-18T18:47:44.000Z,13.67
2023-04-18T18:51:57.178Z,13.62
2023-04-18T18:56:09.813Z,13.48
2023-04-18T19:00:22.238Z,13.29
2023-04-18T19:04:34.678Z,13.25
2023-04-18T19:08:47.240Z,13.16
2023-04-18T19:13:00.607Z,13.16
2023-04-18T19:17:13.407Z,13.03
2023-04-18T19:21:26.364Z,12.95
2023-04-18T19:25:38.800Z,12.88
2023-04-18T19:29:51.564Z,12.92
2023-04-18T19:34:04.131Z,13.03
2023-04-18T19:38:16.579Z,13.09
2023-04-18T19:42:29.060Z,13.09
2023-04-18T19:46:41.450Z,13.08
2023-04-18T19:50:53.861Z,13.01
2023-04-18T19:55:06.902Z,13.06
2023-04-18T19:59:19.352Z,13.00
2023-04-18T20:03:33.400Z,13.06
2023-04-18T20:07:45.776Z,13.09
2023-04-18T20:12:00.750Z,13.04
2023-04-18T20:16:13.189Z,13.04
2023-04-18T20:20:25.658Z,13.01
2023-04-18T20:24:39.634Z,12.94
2023-04-18T20:28:52.040Z,12.97
2023-04-18T20:33:04.482Z,12.94
2023-04-18T20:37:20.081Z,12.94
2023-04-18T20:41:34.985Z,12.89
2023-04-18T20:45:51.312Z,12.91
2023-04-18T20:50:04.039Z,12.82
2023-04-18T20:54:16.779Z,12.88
2023-04-18T20:58:30.504Z,12.89
2023-04-18T21:02:44.036Z,12.91
2023-04-18T21:06:56.606Z,12.93
2023-04-18T21:11:09.107Z,12.90
2023-04-18T21:15:21.481Z,12.91
2023-04-18T21:19:33.925Z,12.88
2023-04-18T21:23:46.301Z,12.75
2023-04-18T21:27:58.666Z,12.62
2023-04-18T21:32:11.005Z,12.55
2023-04-18T21:36:25.160Z,12.34
2023-04-18T21:40:37.994Z,12.22
2023-04-18T21:44:50.407Z,12.20
2023-04-18T21:49:03.245Z,12.27
2023-04-18T21:53:15.774Z,12.42
2023-04-18T21:57:28.579Z,12.52
2023-04-18T22:01:41.018Z,12.56
2023-04-18T22:05:53.552Z,12.59
2023-04-18T22:10:06.383Z,12.55
2023-04-18T22:14:20.153Z,12.52
2023-04-18T22:18:37.598Z,12.41
2023-04-18T22:22:50.584Z,12.32
2023-04-18T22:27:03.099Z,12.22
2023-04-18T22:31:15.753Z,12.21
2023-04-18T22:35:28.337Z,12.15
2023-04-18T22:39:40.775Z,12.13
2023-04-18T22:43:53.239Z,11.96
2023-04-18T22:48:05.840Z,11.82
2023-04-18T22:52:19.460Z,11.76
2023-04-18T22:56:31.811Z,11.68
2023-04-18T23:00:44.038Z,11.62
2023-04-18T23:04:59.262Z,11.58
2023-04-18T23:09:11.597Z,11.58
2023-04-18T23:13:24.041Z,11.46
2023-04-18T23:17:36.478Z,11.41
2023-04-18T23:21:49.742Z,11.39
2023-04-18T23:26:02.249Z,11.32
2023-04-18T23:30:14.785Z,11.25
2023-04-18T23:34:27.132Z,11.28
2023-04-18T23:38:40.829Z,11.29
2023-04-18T23:42:53.154Z,11.22
2023-04-18T23:47:06.155Z,11.20
2023-04-18T23:51:19.329Z,11.13
2023-04-18T23:55:31.641Z,11.14
2023-04-18T23:59:44.035Z,11.24
